Kezdőlap
METAR-TAF:

METAR-TAF

Repülőterek :

Laconia Municipal Airport

Laconia, New Hampshire, Amerikai Egyesült Államok

földrajzi szélesség: 43-34N, földrajzi hosszúság: 071-25W, magasság: 166 m

Jelenlegi meteorológiai megfigyelések

A jelentés 50 perccel ezelõtt készült, 18:56 UTC
Kelet-északkeleti szél 10 kt
Hőmérséklet 22°C
Páratartalom 78%
Légköri nyomás 1013 hPa
Látótávolság: 16.1 km
Borult 2000 lábon

METAR: KLCI 031856Z AUTO 07010KT 10SM OVC020 22/18 A2992 RMK AO2 SLP131 T02170178

Idő: 15:46 (19:46 UTC)


TAF: hiányzik

Meteorológiai megfigyelések és előrejelzések több, mint 4000 repülőtéren (METAR és TAF jelentéseket).

A térképen piros és sárga pontok jelzik az elérhető meteorológiai állomásokat.

Mozgassa az egeret a pont fölött, hogy megjelenjen az állomás neve.

Azután kattintson az időjárási megfigyelések és előrejelzések megtekintéséhez.

A térkép megváltoztatása: kattintson a fekete keresztel jelölt zöld gombra ráközelítéshez, a vonallal jelölt zöld gombra távolításhoz, vagy a zöld nyilakra a szomszédos térképek eléréséhez.


METAR-TAF: